• Join FlightAware (Why Join?)
  • Login
  • US Flag 
10:38PM EST


 

Airport Tracker/Info


-or-


 

Live Flight TrackerFlight Track Log ✈ N329JB ✈ 20-Apr-2013 ✈ KDCA - KFLL

Flight Track Log - Related Links

Times and Time Zones

All times are in EDT time to prevent confusion due to time zone crossing. See the N329JB flight status page for this flight to view local times or setup timezone preferences in your user account.

Time Position Orientation Groundspeed Altitude Reporting Facility
EDT Latitude Longitude Course Direction KTS MPH feet Rate Location/Type
03:12PM 38.9000 -77.0833 169° South 179 206 2,500  Level Potomac TRACON
03:13PM 38.9333 -77.1333 311° West 219 252 5,300 3,000 Climbing Potomac TRACON
03:14PM 39.0000 -77.1500 349° North 255 293 8,300 2,820 Climbing Potomac TRACON
03:15PM 38.5376 -76.7167 180° South  Level FlightAware Approximate
03:15PM 39.0167 -77.0667 76° East 331 381 10,700  Level Potomac TRACON
03:16PM 38.4372 -76.7000 180° South  Level FlightAware Approximate
03:16PM 38.9833 -76.9333 108° East 377 434 12,300  Level Potomac TRACON
03:17PM 38.3489 -76.6833 180° South  Level FlightAware Approximate
03:17PM 38.9000 -76.8833 155° Southeast 321 369 15,100  Level Potomac TRACON
03:18PM 38.2482 -76.6745 169° South  Level FlightAware Approximate
03:19PM 38.7797 -76.8300 161° South 344 396 17,600  Level Washington Center
03:20PM 38.6844 -76.7858 160° South 358 412 19,900 2,160 Climbing Washington Center
03:21PM 38.5847 -76.7392 160° South 370 426 22,000 1,500 Climbing Washington Center
03:22PM 38.4850 -76.7164 170° South 375 432 23,000 1,560 Climbing Washington Center
03:23PM 38.3850 -76.7069 176° South 370 426 25,200 2,040 Climbing Washington Center
03:24PM 38.2892 -76.6894 172° South 364 419 27,100 1,560 Climbing Washington Center
03:25PM 38.1933 -76.6775 174° South 359 413 28,400 1,380 Climbing Washington Center
03:26PM 38.0956 -76.6631 173° South 353 406 29,900 1,200 Climbing Washington Center
03:27PM 37.9997 -76.6511 174° South 353 406 30,900 1,380 Climbing Washington Center
03:28PM 37.9078 -76.6525 181° South 341 392 32,700 1,380 Climbing Washington Center
03:29PM 37.8222 -76.6644 186° South 327 376 33,700 600 Climbing Washington Center
03:30PM 37.7325 -76.6764 186° South 327 376 34,000 120 Climbing Washington Center
03:31PM 37.6425 -76.6881 186° South 327 376 34,000 60 Level Washington Center
03:32PM 37.5486 -76.6972 184° South 332 382 34,200 540 Climbing Washington Center
03:33PM 37.4569 -76.7089 186° South 332 382 35,100 900 Climbing Washington Center
03:34PM 37.3711 -76.7417 197° South 332 382 36,000 420 Climbing Washington Center
03:35PM 37.2850 -76.7744 197° South 327 376 36,000  Level Washington Center
03:36PM 37.2014 -76.8147 201° Southwest 327 376 36,000  Level Washington Center
03:37PM 37.1133 -76.8497 198° South 327 376 36,000  Level Washington Center
03:38PM 37.0294 -76.8850 199° South 327 376 36,000  Level Washington Center
03:39PM 36.9456 -76.9225 200° South 327 376 36,000  Level Washington Center
03:40PM 36.8597 -76.9547 197° South 327 376 36,000  Level Washington Center
03:41PM 36.7739 -76.9922 199° South 327 376 36,000  Level Washington Center
03:42PM 36.6858 -77.0269 198° South 327 376 36,000  Level Washington Center
03:43PM 36.5997 -77.0642 199° South 327 376 36,000  Level Washington Center
03:44PM 36.5181 -77.0961 197° South 332 382 36,000  Level Washington Center
03:45PM 36.4214 -77.1381 199° South 332 382 36,000  Level Washington Center
03:46PM 36.3419 -77.1675 197° South 332 382 36,000  Level Washington Center
03:47PM 36.2536 -77.2069 200° South 337 388 36,000  Level Washington Center
03:48PM 36.1656 -77.2411 197° South 337 388 36,000 300 Level Washington Center
03:49PM 36.0775 -77.2778 199° South 337 388 36,600 600 Climbing Washington Center
03:50PM 35.9894 -77.3119 197° South 337 388 37,300 600 Climbing Washington Center
03:51PM 35.9011 -77.3486 199° South 337 388 37,800 300 Climbing Washington Center
03:52PM 35.8131 -77.3825 197° South 337 388 38,000 60 Climbing Washington Center
03:53PM 35.7369 -77.4472 215° Southwest 332 382 38,000  Level Washington Center
03:54PM 35.6628 -77.5169 217° Southwest 337 388 38,000  Level Washington Center
03:55PM 35.5886 -77.5894 218° Southwest 343 395 38,000  Level Washington Center
03:56PM 35.5103 -77.6589 216° Southwest 348 400 38,000  Level Washington Center
03:57PM 35.4381 -77.7308 219° Southwest 348 400 38,000  Level Washington Center
03:58PM 35.3531 -77.8075 216° Southwest 348 400 38,000  Level Washington Center
03:59PM 35.2789 -77.8794 218° Southwest 348 400 38,000  Level Washington Center
04:00PM 35.2022 -77.9483 216° Southwest 348 400 38,000 -420 Level Washington Center
04:01PM 35.1278 -78.0197 218° Southwest 348 400 37,200 -1,140 Descending Washington Center
04:02PM 35.0514 -78.0911 217° Southwest 348 400 35,800 -1,440 Descending Washington Center
04:03PM 34.9744 -78.1647 218° Southwest 348 400 34,400 -600 Descending Washington Center
04:05PM 34.8069 -78.3164 217° Southwest 350 403 34,000 -180 Descending Jacksonville Center
04:06PM 34.7325 -78.3936 220° Southwest 350 403 34,000  Level Jacksonville Center
04:07PM 34.6536 -78.4608 215° Southwest 355 409 34,000  Level Jacksonville Center
04:08PM 34.5767 -78.5303 217° Southwest 355 409 34,000  Level Jacksonville Center
04:09PM 34.4978 -78.6022 217° Southwest 350 403 34,000  Level Jacksonville Center
04:10PM 34.4253 -78.6789 221° Southwest 350 403 34,000  Level Jacksonville Center
04:11PM 34.3442 -78.7483 215° Southwest 357 411 34,000  Level Jacksonville Center
04:12PM 34.2692 -78.8197 218° Southwest 357 411 34,000  Level Jacksonville Center
04:13PM 34.1903 -78.8886 216° Southwest 357 411 34,000  Level Jacksonville Center
04:14PM 34.1108 -78.9575 216° Southwest 352 405 34,000  Level Jacksonville Center
04:15PM 34.0339 -79.0261 216° Southwest 352 405 34,000  Level Jacksonville Center
04:16PM 33.9567 -79.0969 217° Southwest 352 405 34,000 -360 Level Jacksonville Center
04:17PM 33.8772 -79.1656 216° Southwest 352 405 33,300 -1,200 Descending Jacksonville Center
04:18PM 33.8022 -79.2336 217° Southwest 352 405 31,600 -1,800 Descending Jacksonville Center
04:19PM 33.7183 -79.2969 212° Southwest 352 405 29,800 -1,860 Descending Jacksonville Center
04:20PM 33.6408 -79.3625 215° Southwest 338 389 27,900 -900 Descending Jacksonville Center
04:21PM 33.5656 -79.4231 214° Southwest 326 375 28,000  Climbing Jacksonville Center
04:22PM 33.4897 -79.4831 213° Southwest 326 375 28,000  Level Jacksonville Center
04:23PM 33.4144 -79.5458 215° Southwest 326 375 28,000  Level Jacksonville Center
04:24PM 33.3367 -79.6083 214° Southwest 326 375 28,000  Level Jacksonville Center
04:25PM 33.2589 -79.6708 214° Southwest 331 381 28,000  Level Jacksonville Center
04:26PM 33.1811 -79.7308 213° Southwest 336 387 28,000  Level Jacksonville Center
04:27PM 33.1056 -79.7928 214° Southwest 336 387 28,000  Level Jacksonville Center
04:28PM 33.0275 -79.8525 213° Southwest 336 387 28,000  Level Jacksonville Center
04:29PM 32.9497 -79.9147 214° Southwest 341 392 28,000  Level Jacksonville Center
04:30PM 32.8719 -79.9767 214° Southwest 341 392 28,000  Level Jacksonville Center
04:31PM 32.7939 -80.0383 214° Southwest 341 392 28,000  Level Jacksonville Center
04:32PM 32.7142 -80.1025 214° Southwest 341 392 28,000  Level Jacksonville Center
04:33PM 32.6442 -80.1567 213° Southwest 341 392 28,000  Level Jacksonville Center
04:34PM 32.5664 -80.2206 215° Southwest 341 392 28,000  Level Jacksonville Center
04:35PM 32.4842 -80.2819 212° Southwest 341 392 28,000  Level Jacksonville Center
04:36PM 32.4061 -80.3458 215° Southwest 341 392 28,000  Level Jacksonville Center
04:37PM 32.3258 -80.4069 213° Southwest 341 392 28,000  Level Jacksonville Center
04:38PM 32.2478 -80.4681 214° Southwest 341 392 28,000  Level Jacksonville Center
04:39PM 32.1672 -80.5194 208° Southwest 341 392 28,000  Level Jacksonville Center
04:40PM 32.0653 -80.5417 190° South 337 388 28,000  Level Jacksonville Center
04:41PM 31.9803 -80.5608 191° South 350 403 28,000  Level Jacksonville Center
04:42PM 31.8719 -80.5808 189° South 350 403 28,000  Level Jacksonville Center
04:43PM 31.7742 -80.6028 191° South 350 403 28,000  Level Jacksonville Center
04:44PM 31.6889 -80.6219 191° South 355 409 28,000  Level Jacksonville Center
04:45PM 31.5786 -80.6442 190° South 367 422 28,000  Level Jacksonville Center
04:46PM 31.4831 -80.6683 192° South 367 422 28,000  Level Jacksonville Center
04:47PM 31.3811 -80.6853 188° South 361 415 28,000  Level Jacksonville Center
04:48PM 31.2856 -80.7094 192° South 361 415 28,000  Level Jacksonville Center
04:49PM 31.1833 -80.7217 186° South 368 423 28,000  Level Jacksonville Center
04:50PM 31.0853 -80.7214 180° South 368 423 28,000  Level Jacksonville Center
04:51PM 30.9808 -80.7142 177° South 368 423 28,000  Level Jacksonville Center
04:52PM 30.8761 -80.7094 178° South 373 429 28,000  Level Jacksonville Center
04:53PM 30.7719 -80.7069 179° South 373 429 28,000  Level Jacksonville Center
04:54PM 30.6736 -80.7019 177° South 368 423 28,000  Level Jacksonville Center
04:55PM 30.5692 -80.6972 178° South 368 423 28,000  Level Jacksonville Center
04:56PM 30.4669 -80.6969 180° South 368 423 28,000  Level Jacksonville Center
04:57PM 30.3644 -80.6944 179° South 368 423 28,000  Level Jacksonville Center
04:58PM 30.2581 -80.6922 179° South 368 423 28,000  Level Jacksonville Center
04:59PM 30.1556 -80.6922 180° South 368 423 28,000  Level Jacksonville Center
05:00PM 30.0472 -80.6922 180° South 378 435 28,000  Level Jacksonville Center
05:01PM 29.9386 -80.6947 181° South 383 441 28,000  Level Jacksonville Center
05:02PM 29.8322 -80.6969 181° South 383 441 28,000  Level Jacksonville Center
05:03PM 29.7236 -80.7019 182° South 383 441 28,000  Level Jacksonville Center
05:04PM 29.6131 -80.7044 181° South 388 447 28,000  Level Jacksonville Center
05:05PM 29.5025 -80.7117 183° South 388 447 28,000  Level Jacksonville Center
05:06PM 29.3417 -80.7219 183° South 372 428 28,000  Level Miami Center
05:07PM 29.2333 -80.7231 181° South 378 435 28,000  Level Miami Center
05:08PM 29.1311 -80.7289 183° South 384 442 28,000  Level Miami Center
05:09PM 29.0372 -80.7281 180° South 366 421 28,000  Level Miami Center
05:10PM 28.9475 -80.7225 177° South 347 399 28,000  Level Miami Center
05:11PM 28.8683 -80.6486 141° Southeast 335 386 28,000  Level Miami Center
05:12PM 28.7842 -80.5889 148° Southeast 342 394 28,000  Level Miami Center
05:13PM 28.6958 -80.5386 153° Southeast 353 406 28,000 -300 Level Miami Center
05:14PM 28.6156 -80.4933 154° Southeast 353 406 27,500 -600 Descending Miami Center
05:15PM 28.5272 -80.4433 154° Southeast 358 412 26,800 -900 Descending Miami Center
05:16PM 28.4306 -80.3906 154° Southeast 358 412 25,700 -900 Descending Miami Center
05:17PM 28.3461 -80.3431 154° Southeast 351 404 25,000 -540 Descending Miami Center
05:18PM 28.2636 -80.2981 154° Southeast 343 395 24,700 -540 Descending Miami Center
05:19PM 28.1894 -80.2581 155° Southeast 331 381 24,000 -360 Descending Miami Center
05:20PM 28.0989 -80.2083 154° Southeast 331 381 24,000  Level Miami Center
05:21PM 28.0164 -80.1636 154° Southeast 331 381 24,000  Level Miami Center
05:22PM 27.9339 -80.1167 153° Southeast 336 387 24,000  Level Miami Center
05:23PM 27.8494 -80.0719 155° Southeast 336 387 24,000  Level Miami Center
05:24PM 27.7667 -80.0272 154° Southeast 336 387 24,000  Level Miami Center
05:25PM 27.6842 -79.9828 154° Southeast 336 387 24,000  Level Miami Center
05:26PM 27.5997 -79.9358 154° Southeast 336 387 24,000  Level Miami Center
05:27PM 27.5131 -79.8892 154° Southeast 336 387 24,000  Level Miami Center
05:28PM 27.4408 -79.8475 153° Southeast 331 381 24,000  Level Miami Center
05:29PM 27.3581 -79.8033 155° Southeast 331 381 24,000 -180 Level Miami Center
05:30PM 27.2739 -79.7428 147° Southeast 331 381 23,700 -720 Descending Miami Center
05:31PM 27.3067 -79.6547 67° East 253 291 22,600 -900 Descending Miami Center
05:32PM 27.3922 -79.6661 353° North 212 244 22,000 -300 Descending Miami Center
05:33PM 27.4711 -79.6939 343° North 275 316 22,000  Level Miami Center
05:34PM 27.5092 -79.7672 300° West 272 313 22,000  Level Miami Center
05:35PM 27.4353 -79.8144 210° Southwest 227 261 22,000  Level Miami Center
05:36PM 27.3522 -79.7914 166° South 257 296 22,000  Level Miami Center
05:37PM 27.2692 -79.7567 160° South 304 350 22,000  Level Miami Center
05:38PM 27.2814 -79.6681 81° East 255 293 22,000  Level Miami Center
05:39PM 27.3772 -79.6775 355° North 166 191 22,000  Level Miami Center
05:40PM 27.4606 -79.7006 346° North 254 292 22,000  Level Miami Center
05:41PM 27.5050 -79.7694 306° West 263 303 22,000  Level Miami Center
05:42PM 27.4456 -79.8172 216° Southwest 202 232 22,000  Level Miami Center
05:43PM 27.3625 -79.7939 166° South 213 245 22,000  Level Miami Center
05:44PM 27.2736 -79.7544 158° South 297 342 22,000 -540 Level Miami Center
05:45PM 27.2858 -79.6658 81° East 256 295 21,000 -1,020 Descending Miami Center
05:46PM 27.3711 -79.6725 356° North 203 234 20,000 -540 Descending Miami Center
05:47PM 27.4522 -79.6981 344° North 276 318 20,000  Level Miami Center
05:48PM 27.5053 -79.7603 314° West 283 326 20,000  Level Miami Center
05:49PM 27.4372 -79.8169 216° Southwest 207 238 20,000  Level Miami Center
05:50PM 27.3583 -79.7917 164° South 213 245 20,000  Level Miami Center
05:51PM 27.2817 -79.7639 162° South 265 305 20,000  Level Miami Center
05:52PM 27.2814 -79.6797 90° East 235 270 20,000  Level Miami Center
05:53PM 27.3731 -79.6819 359° North 185 213 20,000  Level Miami Center
05:54PM 27.4561 -79.7050 346° North 273 314 20,000  Level Miami Center
05:55PM 27.5028 -79.7717 308° West 260 299 20,000  Level Miami Center
05:56PM 27.4414 -79.8147 212° Southwest 158 182 20,000  Level Miami Center
05:57PM 27.3647 -79.7942 167° South 181 208 20,000  Level Miami Center
05:58PM 27.2775 -79.7614 162° South 271 312 20,000  Level Miami Center
05:59PM 27.2814 -79.6728 87° East 241 277 20,000  Level Miami Center
06:00PM 27.3669 -79.6747 359° North 185 213 20,000  Level Miami Center
06:01PM 27.4478 -79.7050 342° North 214 246 20,000  Level Miami Center
06:02PM 27.5044 -79.7906 307° West 306 352 20,000  Level Miami Center
06:03PM 27.5417 -79.9156 289° West 350 403 20,000 -120 Level Miami Center
06:04PM 27.5831 -80.0292 292° West 376 433 19,800 -900 Descending Miami Center
06:05PM 27.6181 -80.1403 290° West 385 443 18,300 -1,560 Descending Miami Center
06:06PM 27.6536 -80.2306 294° West 363 418 16,700 -1,920 Descending Miami Center
06:07PM 27.7056 -80.3281 301° West 340 391 14,500 -2,100 Descending Miami Center
06:08PM 27.7536 -80.4189 301° West 334 384 12,600 -1,800 Descending Miami Center
06:09PM 27.7994 -80.5047 301° West 334 384 10,900 -1,320 Descending Miami Center
06:10PM 27.8392 -80.5811 300° West 321 369 10,000 -480 Descending Miami Center
06:11PM 27.8833 -80.6667 300° West 337 388 10,100  Climbing Orlando TRACON
06:13PM 27.9500 -80.8000 300° West 337 388 10,100  Level Orlando TRACON
06:14PM 28.0000 -80.8833 304° West 313 360 10,100 -840 Level Orlando TRACON
06:15PM 28.0500 -80.9667 304° West 271 312 8,400 -1,440 Descending Orlando TRACON
06:16PM 28.0833 -81.0333 300° West 261 300 7,300 -1,200 Descending Orlando TRACON
06:17PM 28.1167 -81.1000 300° West 215 247 6,000 -600 Descending Orlando TRACON
06:18PM 28.1333 -81.1500 291° West 220 253 6,100 -600 Climbing Orlando TRACON
06:19PM 28.1667 -81.2167 300° West 217 250 4,900 -1,440 Descending Orlando TRACON
06:20PM 28.2000 -81.2667 307° West 218 251 3,100 -960 Descending Orlando TRACON
06:21PM 28.2667 -81.3000 336° Northwest 218 251 3,100 -480 Level Orlando TRACON
06:22PM 28.3167 -81.3167 344° North 203 234 2,200 -900 Descending Orlando TRACON
06:23PM 28.3500 -81.3167 360° North 157 181 1,400 -840 Descending Orlando TRACON
06:24PM 28.3833 -81.3167 360° North 122 140 700 -720 Descending Orlando TRACON
06:26PM 28.4294 -81.3090 North  Level Estimated